sensor_id;sensor_type;location;lat;lon;timestamp;P1;durP1;ratioP1;P2;durP2;ratioP2
7729;SDS011;3908;52.310;7.230;2022-10-16T00:01:58;5.93;;;2.03;;
7729;SDS011;3908;52.310;7.230;2022-10-16T00:04:45;3.83;;;1.73;;
7729;SDS011;3908;52.310;7.230;2022-10-16T00:07:32;2.70;;;1.97;;
7729;SDS011;3908;52.310;7.230;2022-10-16T00:10:19;4.03;;;1.80;;
7729;SDS011;3908;52.310;7.230;2022-10-16T00:13:08;6.00;;;2.10;;
7729;SDS011;3908;52.310;7.230;2022-10-16T00:15:55;8.07;;;2.30;;
7729;SDS011;3908;52.310;7.230;2022-10-16T00:18:42;4.87;;;2.20;;
7729;SDS011;3908;52.310;7.230;2022-10-16T00:21:30;13.13;;;2.27;;
7729;SDS011;3908;52.310;7.230;2022-10-16T00:24:17;4.13;;;1.73;;
7729;SDS011;3908;52.310;7.230;2022-10-16T00:27:04;2.57;;;1.70;;
7729;SDS011;3908;52.310;7.230;2022-10-16T00:29:53;9.87;;;1.90;;
7729;SDS011;3908;52.310;7.230;2022-10-16T00:32:40;4.70;;;1.83;;
7729;SDS011;3908;52.310;7.230;2022-10-16T00:35:27;1.70;;;1.60;;
7729;SDS011;3908;52.310;7.230;2022-10-16T00:38:14;4.07;;;2.10;;
7729;SDS011;3908;52.310;7.230;2022-10-16T00:41:01;3.17;;;1.70;;
7729;SDS011;3908;52.310;7.230;2022-10-16T00:43:49;4.73;;;1.90;;
7729;SDS011;3908;52.310;7.230;2022-10-16T00:46:39;5.27;;;2.20;;
7729;SDS011;3908;52.310;7.230;2022-10-16T00:49:28;5.97;;;2.00;;
7729;SDS011;3908;52.310;7.230;2022-10-16T00:52:15;4.50;;;1.90;;
7729;SDS011;3908;52.310;7.230;2022-10-16T00:55:04;6.23;;;2.20;;
7729;SDS011;3908;52.310;7.230;2022-10-16T00:57:53;2.70;;;2.10;;
7729;SDS011;3908;52.310;7.230;2022-10-16T01:00:40;5.80;;;1.97;;
7729;SDS011;3908;52.310;7.230;2022-10-16T01:03:29;5.67;;;2.00;;
7729;SDS011;3908;52.310;7.230;2022-10-16T01:06:24;10.80;;;2.47;;
7729;SDS011;3908;52.310;7.230;2022-10-16T01:09:20;4.27;;;2.47;;
7729;SDS011;3908;52.310;7.230;2022-10-16T01:12:12;10.57;;;2.90;;
7729;SDS011;3908;52.310;7.230;2022-10-16T01:15:04;4.27;;;2.20;;
7729;SDS011;3908;52.310;7.230;2022-10-16T01:17:57;4.27;;;2.50;;
7729;SDS011;3908;52.310;7.230;2022-10-16T01:20:52;6.37;;;2.40;;
7729;SDS011;3908;52.310;7.230;2022-10-16T01:23:44;6.53;;;2.90;;
7729;SDS011;3908;52.310;7.230;2022-10-16T01:26:43;4.23;;;2.73;;
7729;SDS011;3908;52.310;7.230;2022-10-16T01:29:40;6.93;;;2.80;;
7729;SDS011;3908;52.310;7.230;2022-10-16T01:32:36;9.37;;;3.30;;
7729;SDS011;3908;52.310;7.230;2022-10-16T01:35:27;7.20;;;3.10;;
7729;SDS011;3908;52.310;7.230;2022-10-16T01:38:17;3.07;;;2.73;;
7729;SDS011;3908;52.310;7.230;2022-10-16T01:41:09;4.87;;;3.20;;
7729;SDS011;3908;52.310;7.230;2022-10-16T01:44:01;6.50;;;3.47;;
7729;SDS011;3908;52.310;7.230;2022-10-16T01:46:52;10.87;;;3.70;;
7729;SDS011;3908;52.310;7.230;2022-10-16T01:49:41;4.37;;;3.37;;
7729;SDS011;3908;52.310;7.230;2022-10-16T01:52:30;7.17;;;4.27;;
7729;SDS011;3908;52.310;7.230;2022-10-16T01:55:22;6.10;;;3.93;;
7729;SDS011;3908;52.310;7.230;2022-10-16T01:58:13;9.83;;;4.03;;
7729;SDS011;3908;52.310;7.230;2022-10-16T02:01:01;6.90;;;3.70;;
7729;SDS011;3908;52.310;7.230;2022-10-16T02:03:52;5.17;;;3.90;;
7729;SDS011;3908;52.310;7.230;2022-10-16T02:06:43;10.23;;;3.63;;
7729;SDS011;3908;52.310;7.230;2022-10-16T02:09:30;7.60;;;3.80;;
7729;SDS011;3908;52.310;7.230;2022-10-16T02:12:20;7.30;;;4.37;;
7729;SDS011;3908;52.310;7.230;2022-10-16T02:15:12;7.07;;;3.70;;
7729;SDS011;3908;52.310;7.230;2022-10-16T02:18:00;5.13;;;3.63;;
7729;SDS011;3908;52.310;7.230;2022-10-16T02:20:50;8.77;;;3.50;;
7729;SDS011;3908;52.310;7.230;2022-10-16T02:23:42;11.80;;;4.27;;
7729;SDS011;3908;52.310;7.230;2022-10-16T02:26:37;6.03;;;3.67;;
7729;SDS011;3908;52.310;7.230;2022-10-16T02:29:28;7.60;;;3.70;;
7729;SDS011;3908;52.310;7.230;2022-10-16T02:32:17;19.97;;;4.53;;
7729;SDS011;3908;52.310;7.230;2022-10-16T02:35:08;54.80;;;6.77;;
7729;SDS011;3908;52.310;7.230;2022-10-16T02:37:57;16.80;;;4.77;;
7729;SDS011;3908;52.310;7.230;2022-10-16T02:40:45;6.27;;;4.23;;
7729;SDS011;3908;52.310;7.230;2022-10-16T02:43:32;7.43;;;4.07;;
7729;SDS011;3908;52.310;7.230;2022-10-16T02:46:19;9.03;;;3.97;;
7729;SDS011;3908;52.310;7.230;2022-10-16T02:49:07;10.33;;;4.53;;
7729;SDS011;3908;52.310;7.230;2022-10-16T02:51:54;7.93;;;4.47;;
7729;SDS011;3908;52.310;7.230;2022-10-16T02:54:42;7.00;;;4.33;;
7729;SDS011;3908;52.310;7.230;2022-10-16T02:57:29;6.07;;;4.20;;
7729;SDS011;3908;52.310;7.230;2022-10-16T03:00:17;8.67;;;4.80;;
7729;SDS011;3908;52.310;7.230;2022-10-16T03:03:04;4.87;;;4.03;;
7729;SDS011;3908;52.310;7.230;2022-10-16T03:05:51;7.60;;;4.83;;
7729;SDS011;3908;52.310;7.230;2022-10-16T03:08:38;5.53;;;4.27;;
7729;SDS011;3908;52.310;7.230;2022-10-16T03:11:26;8.03;;;4.47;;
7729;SDS011;3908;52.310;7.230;2022-10-16T03:14:13;8.07;;;4.53;;
7729;SDS011;3908;52.310;7.230;2022-10-16T03:17:00;7.53;;;4.70;;
7729;SDS011;3908;52.310;7.230;2022-10-16T03:19:47;6.30;;;4.10;;
7729;SDS011;3908;52.310;7.230;2022-10-16T03:22:35;6.57;;;3.93;;
7729;SDS011;3908;52.310;7.230;2022-10-16T03:25:22;8.27;;;4.10;;
7729;SDS011;3908;52.310;7.230;2022-10-16T03:28:10;5.17;;;4.23;;
7729;SDS011;3908;52.310;7.230;2022-10-16T03:30:57;5.00;;;3.67;;
7729;SDS011;3908;52.310;7.230;2022-10-16T03:33:44;6.47;;;3.87;;
7729;SDS011;3908;52.310;7.230;2022-10-16T03:36:31;7.30;;;3.20;;
7729;SDS011;3908;52.310;7.230;2022-10-16T03:39:18;9.13;;;3.80;;
7729;SDS011;3908;52.310;7.230;2022-10-16T03:42:05;19.13;;;3.80;;
7729;SDS011;3908;52.310;7.230;2022-10-16T03:44:53;5.30;;;3.93;;
7729;SDS011;3908;52.310;7.230;2022-10-16T03:47:40;5.87;;;3.30;;
7729;SDS011;3908;52.310;7.230;2022-10-16T03:50:27;3.17;;;2.87;;
7729;SDS011;3908;52.310;7.230;2022-10-16T03:53:15;20.10;;;3.40;;
7729;SDS011;3908;52.310;7.230;2022-10-16T03:56:02;7.00;;;3.17;;
7729;SDS011;3908;52.310;7.230;2022-10-16T03:58:49;4.07;;;2.87;;
7729;SDS011;3908;52.310;7.230;2022-10-16T04:01:37;4.67;;;2.93;;
7729;SDS011;3908;52.310;7.230;2022-10-16T04:04:24;7.47;;;3.13;;
7729;SDS011;3908;52.310;7.230;2022-10-16T04:07:11;4.57;;;2.97;;
7729;SDS011;3908;52.310;7.230;2022-10-16T04:09:58;11.30;;;3.97;;
7729;SDS011;3908;52.310;7.230;2022-10-16T04:12:45;17.33;;;3.83;;
7729;SDS011;3908;52.310;7.230;2022-10-16T04:15:32;4.10;;;2.63;;
7729;SDS011;3908;52.310;7.230;2022-10-16T04:18:21;5.97;;;2.87;;
7729;SDS011;3908;52.310;7.230;2022-10-16T04:21:08;5.47;;;3.13;;
7729;SDS011;3908;52.310;7.230;2022-10-16T04:23:55;3.77;;;2.93;;
7729;SDS011;3908;52.310;7.230;2022-10-16T04:26:42;6.13;;;3.00;;
7729;SDS011;3908;52.310;7.230;2022-10-16T04:29:29;5.93;;;2.80;;
7729;SDS011;3908;52.310;7.230;2022-10-16T04:32:16;4.10;;;2.87;;
7729;SDS011;3908;52.310;7.230;2022-10-16T04:35:05;4.67;;;2.83;;
7729;SDS011;3908;52.310;7.230;2022-10-16T04:37:53;4.00;;;2.80;;
7729;SDS011;3908;52.310;7.230;2022-10-16T04:40:41;7.53;;;3.00;;
7729;SDS011;3908;52.310;7.230;2022-10-16T04:43:28;4.53;;;3.00;;
7729;SDS011;3908;52.310;7.230;2022-10-16T04:46:15;12.17;;;3.27;;
7729;SDS011;3908;52.310;7.230;2022-10-16T04:49:02;4.47;;;2.90;;
7729;SDS011;3908;52.310;7.230;2022-10-16T04:51:51;5.87;;;3.13;;
7729;SDS011;3908;52.310;7.230;2022-10-16T04:54:38;6.50;;;2.83;;
7729;SDS011;3908;52.310;7.230;2022-10-16T04:57:25;4.20;;;2.90;;
7729;SDS011;3908;52.310;7.230;2022-10-16T05:00:12;5.50;;;2.70;;
7729;SDS011;3908;52.310;7.230;2022-10-16T05:02:59;4.10;;;2.50;;
7729;SDS011;3908;52.310;7.230;2022-10-16T05:05:47;2.60;;;2.33;;
7729;SDS011;3908;52.310;7.230;2022-10-16T05:08:35;5.73;;;3.27;;
7729;SDS011;3908;52.310;7.230;2022-10-16T05:11:22;5.00;;;3.20;;
7729;SDS011;3908;52.310;7.230;2022-10-16T05:14:09;4.33;;;2.90;;
7729;SDS011;3908;52.310;7.230;2022-10-16T05:16:56;6.77;;;2.67;;
7729;SDS011;3908;52.310;7.230;2022-10-16T05:19:43;3.90;;;2.60;;
7729;SDS011;3908;52.310;7.230;2022-10-16T05:22:30;4.73;;;2.77;;
7729;SDS011;3908;52.310;7.230;2022-10-16T05:25:19;7.83;;;3.13;;
7729;SDS011;3908;52.310;7.230;2022-10-16T05:28:06;4.33;;;2.80;;
7729;SDS011;3908;52.310;7.230;2022-10-16T05:30:53;5.23;;;2.90;;
7729;SDS011;3908;52.310;7.230;2022-10-16T05:33:40;5.50;;;2.87;;
7729;SDS011;3908;52.310;7.230;2022-10-16T05:36:29;2.67;;;2.43;;
7729;SDS011;3908;52.310;7.230;2022-10-16T05:39:16;3.27;;;2.73;;
7729;SDS011;3908;52.310;7.230;2022-10-16T05:42:04;6.40;;;3.13;;
7729;SDS011;3908;52.310;7.230;2022-10-16T05:44:52;4.03;;;2.70;;
7729;SDS011;3908;52.310;7.230;2022-10-16T05:47:39;3.40;;;2.57;;
7729;SDS011;3908;52.310;7.230;2022-10-16T05:50:27;3.37;;;2.80;;
7729;SDS011;3908;52.310;7.230;2022-10-16T05:53:14;3.60;;;2.90;;
7729;SDS011;3908;52.310;7.230;2022-10-16T05:56:01;6.97;;;2.77;;
7729;SDS011;3908;52.310;7.230;2022-10-16T05:58:50;5.80;;;2.90;;
7729;SDS011;3908;52.310;7.230;2022-10-16T06:01:37;3.77;;;3.03;;
7729;SDS011;3908;52.310;7.230;2022-10-16T06:04:24;3.83;;;2.93;;
7729;SDS011;3908;52.310;7.230;2022-10-16T06:07:11;8.37;;;3.50;;
7729;SDS011;3908;52.310;7.230;2022-10-16T06:09:58;4.40;;;2.80;;
7729;SDS011;3908;52.310;7.230;2022-10-16T06:12:45;6.63;;;3.30;;
7729;SDS011;3908;52.310;7.230;2022-10-16T06:15:33;3.43;;;2.57;;
7729;SDS011;3908;52.310;7.230;2022-10-16T06:18:20;4.90;;;2.90;;
7729;SDS011;3908;52.310;7.230;2022-10-16T06:21:08;3.13;;;2.70;;
7729;SDS011;3908;52.310;7.230;2022-10-16T06:23:56;4.93;;;3.00;;
7729;SDS011;3908;52.310;7.230;2022-10-16T06:26:44;5.47;;;3.40;;
7729;SDS011;3908;52.310;7.230;2022-10-16T06:29:31;3.70;;;3.27;;
7729;SDS011;3908;52.310;7.230;2022-10-16T06:32:19;3.33;;;2.73;;
7729;SDS011;3908;52.310;7.230;2022-10-16T06:35:07;4.70;;;2.90;;
7729;SDS011;3908;52.310;7.230;2022-10-16T06:37:54;4.43;;;2.93;;
7729;SDS011;3908;52.310;7.230;2022-10-16T06:40:41;5.90;;;3.27;;
7729;SDS011;3908;52.310;7.230;2022-10-16T06:43:28;3.90;;;2.37;;
7729;SDS011;3908;52.310;7.230;2022-10-16T06:46:18;3.30;;;2.60;;
7729;SDS011;3908;52.310;7.230;2022-10-16T06:49:07;5.17;;;2.70;;
7729;SDS011;3908;52.310;7.230;2022-10-16T06:51:54;4.17;;;2.77;;
7729;SDS011;3908;52.310;7.230;2022-10-16T06:54:41;6.33;;;2.70;;
7729;SDS011;3908;52.310;7.230;2022-10-16T06:57:28;5.50;;;2.70;;
7729;SDS011;3908;52.310;7.230;2022-10-16T07:00:15;5.47;;;2.97;;
7729;SDS011;3908;52.310;7.230;2022-10-16T07:03:03;6.50;;;3.00;;
7729;SDS011;3908;52.310;7.230;2022-10-16T07:05:51;5.70;;;2.70;;
7729;SDS011;3908;52.310;7.230;2022-10-16T07:08:38;3.10;;;2.57;;
7729;SDS011;3908;52.310;7.230;2022-10-16T07:11:27;5.83;;;3.40;;
7729;SDS011;3908;52.310;7.230;2022-10-16T07:14:14;5.30;;;2.87;;
7729;SDS011;3908;52.310;7.230;2022-10-16T07:17:02;4.57;;;2.67;;
7729;SDS011;3908;52.310;7.230;2022-10-16T07:19:51;5.13;;;3.03;;
7729;SDS011;3908;52.310;7.230;2022-10-16T07:22:42;5.80;;;2.87;;
7729;SDS011;3908;52.310;7.230;2022-10-16T07:25:29;7.73;;;3.10;;
7729;SDS011;3908;52.310;7.230;2022-10-16T07:28:16;4.40;;;3.07;;
7729;SDS011;3908;52.310;7.230;2022-10-16T07:31:03;6.57;;;2.70;;
7729;SDS011;3908;52.310;7.230;2022-10-16T07:33:50;5.33;;;2.90;;
7729;SDS011;3908;52.310;7.230;2022-10-16T07:36:38;4.57;;;2.63;;
7729;SDS011;3908;52.310;7.230;2022-10-16T07:39:26;4.33;;;2.70;;
7729;SDS011;3908;52.310;7.230;2022-10-16T07:42:13;3.47;;;2.30;;
7729;SDS011;3908;52.310;7.230;2022-10-16T07:45:00;4.27;;;2.37;;
7729;SDS011;3908;52.310;7.230;2022-10-16T07:47:48;5.37;;;2.37;;
7729;SDS011;3908;52.310;7.230;2022-10-16T07:50:37;4.00;;;2.20;;
7729;SDS011;3908;52.310;7.230;2022-10-16T07:53:24;3.43;;;2.43;;
7729;SDS011;3908;52.310;7.230;2022-10-16T07:56:13;6.17;;;2.43;;
7729;SDS011;3908;52.310;7.230;2022-10-16T07:59:01;2.87;;;2.10;;
7729;SDS011;3908;52.310;7.230;2022-10-16T08:01:48;3.67;;;1.93;;
7729;SDS011;3908;52.310;7.230;2022-10-16T08:04:38;5.10;;;2.23;;
7729;SDS011;3908;52.310;7.230;2022-10-16T08:07:25;3.33;;;2.07;;
7729;SDS011;3908;52.310;7.230;2022-10-16T08:10:14;4.73;;;1.80;;
7729;SDS011;3908;52.310;7.230;2022-10-16T08:13:04;4.50;;;2.00;;
7729;SDS011;3908;52.310;7.230;2022-10-16T08:15:53;4.07;;;1.67;;
7729;SDS011;3908;52.310;7.230;2022-10-16T08:18:41;3.57;;;1.80;;
7729;SDS011;3908;52.310;7.230;2022-10-16T08:21:28;4.57;;;1.83;;
7729;SDS011;3908;52.310;7.230;2022-10-16T08:24:16;3.77;;;1.80;;
7729;SDS011;3908;52.310;7.230;2022-10-16T08:27:03;2.03;;;1.80;;
7729;SDS011;3908;52.310;7.230;2022-10-16T08:29:52;2.23;;;1.70;;
7729;SDS011;3908;52.310;7.230;2022-10-16T08:32:39;4.33;;;1.87;;
7729;SDS011;3908;52.310;7.230;2022-10-16T08:35:26;4.77;;;1.70;;
7729;SDS011;3908;52.310;7.230;2022-10-16T08:38:13;3.63;;;1.93;;
7729;SDS011;3908;52.310;7.230;2022-10-16T08:41:13;3.30;;;1.80;;
7729;SDS011;3908;52.310;7.230;2022-10-16T08:47:24;5.60;;;1.97;;
7729;SDS011;3908;52.310;7.230;2022-10-16T08:50:21;10.73;;;2.27;;
7729;SDS011;3908;52.310;7.230;2022-10-16T08:53:13;3.43;;;2.10;;
7729;SDS011;3908;52.310;7.230;2022-10-16T08:56:03;2.93;;;1.70;;
7729;SDS011;3908;52.310;7.230;2022-10-16T08:58:51;4.77;;;1.93;;
7729;SDS011;3908;52.310;7.230;2022-10-16T09:01:40;6.53;;;1.77;;
7729;SDS011;3908;52.310;7.230;2022-10-16T09:04:43;3.30;;;1.70;;
7729;SDS011;3908;52.310;7.230;2022-10-16T09:07:47;6.63;;;1.90;;
7729;SDS011;3908;52.310;7.230;2022-10-16T09:10:43;5.73;;;1.87;;
7729;SDS011;3908;52.310;7.230;2022-10-16T09:13:43;3.23;;;1.67;;
7729;SDS011;3908;52.310;7.230;2022-10-16T09:16:43;2.17;;;1.30;;
7729;SDS011;3908;52.310;7.230;2022-10-16T09:19:55;3.73;;;1.37;;
7729;SDS011;3908;52.310;7.230;2022-10-16T09:23:07;4.83;;;1.73;;
7729;SDS011;3908;52.310;7.230;2022-10-16T09:26:00;4.03;;;1.50;;
7729;SDS011;3908;52.310;7.230;2022-10-16T09:28:49;4.03;;;1.70;;
7729;SDS011;3908;52.310;7.230;2022-10-16T09:31:39;4.00;;;1.63;;
7729;SDS011;3908;52.310;7.230;2022-10-16T09:34:27;5.77;;;1.50;;
7729;SDS011;3908;52.310;7.230;2022-10-16T09:37:20;2.47;;;1.50;;
7729;SDS011;3908;52.310;7.230;2022-10-16T09:40:23;3.33;;;1.50;;
7729;SDS011;3908;52.310;7.230;2022-10-16T09:43:18;2.50;;;1.40;;
7729;SDS011;3908;52.310;7.230;2022-10-16T09:46:09;2.87;;;1.50;;
7729;SDS011;3908;52.310;7.230;2022-10-16T09:49:18;3.87;;;1.43;;
7729;SDS011;3908;52.310;7.230;2022-10-16T09:52:11;3.90;;;1.07;;
7729;SDS011;3908;52.310;7.230;2022-10-16T09:55:02;4.83;;;1.73;;
7729;SDS011;3908;52.310;7.230;2022-10-16T09:58:02;3.07;;;1.50;;
7729;SDS011;3908;52.310;7.230;2022-10-16T10:00:49;5.70;;;1.73;;
7729;SDS011;3908;52.310;7.230;2022-10-16T10:03:41;2.97;;;1.60;;
7729;SDS011;3908;52.310;7.230;2022-10-16T10:06:31;4.80;;;1.67;;
7729;SDS011;3908;52.310;7.230;2022-10-16T10:09:23;3.57;;;1.70;;
7729;SDS011;3908;52.310;7.230;2022-10-16T10:12:18;5.63;;;1.57;;
7729;SDS011;3908;52.310;7.230;2022-10-16T10:15:10;4.83;;;1.60;;
7729;SDS011;3908;52.310;7.230;2022-10-16T10:17:58;3.63;;;1.57;;
7729;SDS011;3908;52.310;7.230;2022-10-16T10:20:46;3.13;;;1.37;;
7729;SDS011;3908;52.310;7.230;2022-10-16T10:23:54;3.20;;;1.60;;
7729;SDS011;3908;52.310;7.230;2022-10-16T10:26:45;3.30;;;1.60;;
7729;SDS011;3908;52.310;7.230;2022-10-16T10:29:43;4.43;;;1.60;;
7729;SDS011;3908;52.310;7.230;2022-10-16T10:32:41;5.63;;;1.97;;
7729;SDS011;3908;52.310;7.230;2022-10-16T10:35:36;3.10;;;1.80;;
7729;SDS011;3908;52.310;7.230;2022-10-16T10:38:32;4.20;;;1.60;;
7729;SDS011;3908;52.310;7.230;2022-10-16T10:44:57;13.32;;;4.55;;
7729;SDS011;3908;52.310;7.230;2022-10-16T10:51:25;5.27;;;2.07;;
7729;SDS011;3908;52.310;7.230;2022-10-16T10:54:20;6.60;;;2.00;;
7729;SDS011;3908;52.310;7.230;2022-10-16T10:57:15;5.07;;;2.03;;
7729;SDS011;3908;52.310;7.230;2022-10-16T11:00:18;5.13;;;2.63;;
7729;SDS011;3908;52.310;7.230;2022-10-16T11:03:12;6.20;;;2.73;;
7729;SDS011;3908;52.310;7.230;2022-10-16T11:06:08;4.93;;;2.60;;
7729;SDS011;3908;52.310;7.230;2022-10-16T11:09:00;7.97;;;3.17;;
7729;SDS011;3908;52.310;7.230;2022-10-16T11:11:56;8.83;;;3.10;;
7729;SDS011;3908;52.310;7.230;2022-10-16T11:14:48;12.90;;;5.30;;
7729;SDS011;3908;52.310;7.230;2022-10-16T11:17:44;16.57;;;8.57;;
7729;SDS011;3908;52.310;7.230;2022-10-16T11:20:37;8.63;;;4.40;;
7729;SDS011;3908;52.310;7.230;2022-10-16T11:23:31;9.98;;;4.80;;
7729;SDS011;3908;52.310;7.230;2022-10-16T11:26:25;9.45;;;4.20;;
7729;SDS011;3908;52.310;7.230;2022-10-16T11:29:16;12.18;;;4.10;;
7729;SDS011;3908;52.310;7.230;2022-10-16T11:32:12;9.70;;;3.72;;
7729;SDS011;3908;52.310;7.230;2022-10-16T11:35:14;7.85;;;3.13;;
7729;SDS011;3908;52.310;7.230;2022-10-16T11:38:09;11.20;;;3.58;;
7729;SDS011;3908;52.310;7.230;2022-10-16T11:41:06;6.60;;;3.00;;
7729;SDS011;3908;52.310;7.230;2022-10-16T11:44:12;9.02;;;3.50;;
7729;SDS011;3908;52.310;7.230;2022-10-16T11:47:08;6.70;;;2.20;;
7729;SDS011;3908;52.310;7.230;2022-10-16T11:50:06;4.90;;;2.17;;
7729;SDS011;3908;52.310;7.230;2022-10-16T11:53:13;10.45;;;2.88;;
7729;SDS011;3908;52.310;7.230;2022-10-16T11:56:08;7.43;;;2.03;;
7729;SDS011;3908;52.310;7.230;2022-10-16T11:59:00;4.57;;;2.25;;
7729;SDS011;3908;52.310;7.230;2022-10-16T12:01:51;6.90;;;2.15;;
7729;SDS011;3908;52.310;7.230;2022-10-16T12:04:45;11.90;;;6.33;;
7729;SDS011;3908;52.310;7.230;2022-10-16T12:07:38;9.55;;;2.05;;
7729;SDS011;3908;52.310;7.230;2022-10-16T12:10:35;5.25;;;1.65;;
7729;SDS011;3908;52.310;7.230;2022-10-16T12:13:30;7.00;;;2.08;;
7729;SDS011;3908;52.310;7.230;2022-10-16T12:16:22;6.43;;;1.40;;
7729;SDS011;3908;52.310;7.230;2022-10-16T12:19:12;8.98;;;2.13;;
7729;SDS011;3908;52.310;7.230;2022-10-16T12:22:01;9.68;;;1.70;;
7729;SDS011;3908;52.310;7.230;2022-10-16T12:24:50;7.10;;;1.55;;
7729;SDS011;3908;52.310;7.230;2022-10-16T12:27:40;9.77;;;1.67;;
7729;SDS011;3908;52.310;7.230;2022-10-16T12:30:27;7.80;;;1.80;;
7729;SDS011;3908;52.310;7.230;2022-10-16T12:33:20;5.80;;;1.40;;
7729;SDS011;3908;52.310;7.230;2022-10-16T12:36:12;6.55;;;1.60;;
7729;SDS011;3908;52.310;7.230;2022-10-16T12:39:01;6.22;;;1.70;;
7729;SDS011;3908;52.310;7.230;2022-10-16T12:42:00;5.88;;;1.55;;
7729;SDS011;3908;52.310;7.230;2022-10-16T12:44:49;7.20;;;1.58;;
7729;SDS011;3908;52.310;7.230;2022-10-16T12:47:46;5.80;;;1.67;;
7729;SDS011;3908;52.310;7.230;2022-10-16T12:50:36;4.40;;;1.75;;
7729;SDS011;3908;52.310;7.230;2022-10-16T12:53:26;10.98;;;2.30;;
7729;SDS011;3908;52.310;7.230;2022-10-16T12:56:15;4.88;;;1.52;;
7729;SDS011;3908;52.310;7.230;2022-10-16T12:59:12;4.63;;;1.60;;
7729;SDS011;3908;52.310;7.230;2022-10-16T13:05:42;5.05;;;1.65;;
7729;SDS011;3908;52.310;7.230;2022-10-16T13:08:47;4.72;;;1.52;;
7729;SDS011;3908;52.310;7.230;2022-10-16T13:15:16;3.20;;;1.67;;
7729;SDS011;3908;52.310;7.230;2022-10-16T13:18:15;6.95;;;1.55;;
7729;SDS011;3908;52.310;7.230;2022-10-16T13:21:11;5.78;;;1.65;;
7729;SDS011;3908;52.310;7.230;2022-10-16T13:24:10;10.55;;;2.05;;
7729;SDS011;3908;52.310;7.230;2022-10-16T13:27:06;8.43;;;1.33;;
7729;SDS011;3908;52.310;7.230;2022-10-16T13:30:00;7.60;;;1.33;;
7729;SDS011;3908;52.310;7.230;2022-10-16T13:32:58;6.82;;;1.45;;
7729;SDS011;3908;52.310;7.230;2022-10-16T13:35:49;8.20;;;1.80;;
7729;SDS011;3908;52.310;7.230;2022-10-16T13:38:38;6.32;;;1.63;;
7729;SDS011;3908;52.310;7.230;2022-10-16T13:41:25;10.40;;;1.85;;
7729;SDS011;3908;52.310;7.230;2022-10-16T13:44:13;7.28;;;1.60;;
7729;SDS011;3908;52.310;7.230;2022-10-16T13:47:03;6.22;;;1.88;;
7729;SDS011;3908;52.310;7.230;2022-10-16T13:49:58;7.65;;;1.50;;
7729;SDS011;3908;52.310;7.230;2022-10-16T13:52:48;11.02;;;1.92;;
7729;SDS011;3908;52.310;7.230;2022-10-16T13:55:36;7.18;;;1.80;;
7729;SDS011;3908;52.310;7.230;2022-10-16T13:58:23;4.10;;;1.40;;
7729;SDS011;3908;52.310;7.230;2022-10-16T14:01:15;6.45;;;2.10;;
7729;SDS011;3908;52.310;7.230;2022-10-16T14:04:05;6.90;;;2.08;;
7729;SDS011;3908;52.310;7.230;2022-10-16T14:06:54;7.85;;;1.85;;
7729;SDS011;3908;52.310;7.230;2022-10-16T14:09:42;5.90;;;1.73;;
7729;SDS011;3908;52.310;7.230;2022-10-16T14:12:38;5.45;;;1.63;;
7729;SDS011;3908;52.310;7.230;2022-10-16T14:15:25;14.75;;;2.10;;
7729;SDS011;3908;52.310;7.230;2022-10-16T14:18:13;5.43;;;1.60;;
7729;SDS011;3908;52.310;7.230;2022-10-16T14:21:04;7.43;;;2.00;;
7729;SDS011;3908;52.310;7.230;2022-10-16T14:23:53;6.63;;;1.80;;
7729;SDS011;3908;52.310;7.230;2022-10-16T14:26:43;3.37;;;1.40;;
7729;SDS011;3908;52.310;7.230;2022-10-16T14:29:30;7.60;;;3.13;;
7729;SDS011;3908;52.310;7.230;2022-10-16T14:32:22;5.43;;;2.10;;
7729;SDS011;3908;52.310;7.230;2022-10-16T14:35:21;10.17;;;1.83;;
7729;SDS011;3908;52.310;7.230;2022-10-16T14:38:16;10.27;;;1.80;;
7729;SDS011;3908;52.310;7.230;2022-10-16T14:41:06;9.37;;;1.73;;
7729;SDS011;3908;52.310;7.230;2022-10-16T14:43:55;5.67;;;1.57;;
7729;SDS011;3908;52.310;7.230;2022-10-16T14:46:47;11.87;;;2.00;;
7729;SDS011;3908;52.310;7.230;2022-10-16T14:49:34;6.90;;;1.87;;
7729;SDS011;3908;52.310;7.230;2022-10-16T14:52:21;6.13;;;2.00;;
7729;SDS011;3908;52.310;7.230;2022-10-16T14:55:09;6.60;;;1.53;;
7729;SDS011;3908;52.310;7.230;2022-10-16T14:57:56;6.53;;;1.80;;
7729;SDS011;3908;52.310;7.230;2022-10-16T15:00:44;7.43;;;1.73;;
7729;SDS011;3908;52.310;7.230;2022-10-16T15:03:32;5.57;;;1.40;;
7729;SDS011;3908;52.310;7.230;2022-10-16T15:06:19;6.87;;;1.43;;
7729;SDS011;3908;52.310;7.230;2022-10-16T15:09:06;3.70;;;1.73;;
7729;SDS011;3908;52.310;7.230;2022-10-16T15:11:53;5.73;;;1.73;;
7729;SDS011;3908;52.310;7.230;2022-10-16T15:14:40;7.13;;;1.60;;
7729;SDS011;3908;52.310;7.230;2022-10-16T15:17:29;6.57;;;1.70;;
7729;SDS011;3908;52.310;7.230;2022-10-16T15:20:16;8.03;;;1.50;;
7729;SDS011;3908;52.310;7.230;2022-10-16T15:23:04;5.77;;;1.43;;
7729;SDS011;3908;52.310;7.230;2022-10-16T15:25:53;5.17;;;1.43;;
7729;SDS011;3908;52.310;7.230;2022-10-16T15:28:41;5.20;;;1.50;;
7729;SDS011;3908;52.310;7.230;2022-10-16T15:31:28;6.67;;;2.23;;
7729;SDS011;3908;52.310;7.230;2022-10-16T15:34:17;5.63;;;1.63;;
7729;SDS011;3908;52.310;7.230;2022-10-16T15:37:04;5.10;;;1.57;;
7729;SDS011;3908;52.310;7.230;2022-10-16T15:39:51;10.90;;;2.10;;
7729;SDS011;3908;52.310;7.230;2022-10-16T15:42:39;5.50;;;1.80;;
7729;SDS011;3908;52.310;7.230;2022-10-16T15:45:26;9.60;;;2.47;;
7729;SDS011;3908;52.310;7.230;2022-10-16T15:48:13;4.50;;;1.57;;
7729;SDS011;3908;52.310;7.230;2022-10-16T15:51:02;5.37;;;1.50;;
7729;SDS011;3908;52.310;7.230;2022-10-16T15:53:51;10.50;;;1.87;;
7729;SDS011;3908;52.310;7.230;2022-10-16T15:56:39;6.40;;;1.53;;
7729;SDS011;3908;52.310;7.230;2022-10-16T15:59:26;6.20;;;2.20;;
7729;SDS011;3908;52.310;7.230;2022-10-16T16:02:13;5.90;;;1.50;;
7729;SDS011;3908;52.310;7.230;2022-10-16T16:05:00;6.53;;;1.60;;
7729;SDS011;3908;52.310;7.230;2022-10-16T16:07:49;6.00;;;2.40;;
7729;SDS011;3908;52.310;7.230;2022-10-16T16:10:43;2.33;;;1.30;;
7729;SDS011;3908;52.310;7.230;2022-10-16T16:13:30;4.33;;;2.17;;
7729;SDS011;3908;52.310;7.230;2022-10-16T16:16:20;5.43;;;1.50;;
7729;SDS011;3908;52.310;7.230;2022-10-16T16:19:07;4.47;;;1.40;;
7729;SDS011;3908;52.310;7.230;2022-10-16T16:21:54;4.87;;;1.63;;
7729;SDS011;3908;52.310;7.230;2022-10-16T16:24:43;5.07;;;1.47;;
7729;SDS011;3908;52.310;7.230;2022-10-16T16:27:30;4.37;;;1.67;;
7729;SDS011;3908;52.310;7.230;2022-10-16T16:30:18;4.23;;;1.67;;
7729;SDS011;3908;52.310;7.230;2022-10-16T16:33:06;8.57;;;1.43;;
7729;SDS011;3908;52.310;7.230;2022-10-16T16:35:56;9.63;;;2.03;;
7729;SDS011;3908;52.310;7.230;2022-10-16T16:38:43;7.63;;;2.50;;
7729;SDS011;3908;52.310;7.230;2022-10-16T16:41:32;10.37;;;1.90;;
7729;SDS011;3908;52.310;7.230;2022-10-16T16:44:19;5.07;;;1.70;;
7729;SDS011;3908;52.310;7.230;2022-10-16T16:47:06;5.43;;;2.33;;
7729;SDS011;3908;52.310;7.230;2022-10-16T16:49:53;28.10;;;3.13;;
7729;SDS011;3908;52.310;7.230;2022-10-16T16:52:40;14.67;;;2.10;;
7729;SDS011;3908;52.310;7.230;2022-10-16T16:55:28;9.60;;;1.87;;
7729;SDS011;3908;52.310;7.230;2022-10-16T16:58:18;6.80;;;2.17;;
7729;SDS011;3908;52.310;7.230;2022-10-16T17:01:09;16.23;;;2.90;;
7729;SDS011;3908;52.310;7.230;2022-10-16T17:03:56;6.57;;;1.87;;
7729;SDS011;3908;52.310;7.230;2022-10-16T17:06:44;11.73;;;4.07;;
7729;SDS011;3908;52.310;7.230;2022-10-16T17:09:32;7.50;;;1.90;;
7729;SDS011;3908;52.310;7.230;2022-10-16T17:12:19;5.10;;;1.50;;
7729;SDS011;3908;52.310;7.230;2022-10-16T17:15:08;5.50;;;2.00;;
7729;SDS011;3908;52.310;7.230;2022-10-16T17:17:55;4.17;;;1.83;;
7729;SDS011;3908;52.310;7.230;2022-10-16T17:20:42;10.37;;;1.90;;
7729;SDS011;3908;52.310;7.230;2022-10-16T17:23:30;4.67;;;1.83;;
7729;SDS011;3908;52.310;7.230;2022-10-16T17:26:17;5.87;;;1.87;;
7729;SDS011;3908;52.310;7.230;2022-10-16T17:29:04;8.10;;;1.87;;
7729;SDS011;3908;52.310;7.230;2022-10-16T17:31:54;7.37;;;2.00;;
7729;SDS011;3908;52.310;7.230;2022-10-16T17:34:43;5.00;;;1.87;;
7729;SDS011;3908;52.310;7.230;2022-10-16T17:37:30;10.50;;;2.23;;
7729;SDS011;3908;52.310;7.230;2022-10-16T17:40:17;5.67;;;1.77;;
7729;SDS011;3908;52.310;7.230;2022-10-16T17:43:04;4.53;;;1.73;;
7729;SDS011;3908;52.310;7.230;2022-10-16T17:45:52;14.97;;;2.63;;
7729;SDS011;3908;52.310;7.230;2022-10-16T17:48:41;8.27;;;2.10;;
7729;SDS011;3908;52.310;7.230;2022-10-16T17:51:30;11.40;;;3.13;;
7729;SDS011;3908;52.310;7.230;2022-10-16T17:54:17;6.93;;;2.37;;